createdAt,value
2022-10-14T00:01:27.141Z,89.07
2022-10-14T00:03:56.858Z,88.88
2022-10-14T00:06:27.742Z,88.96
2022-10-14T00:09:00.585Z,88.85
2022-10-14T00:11:31.338Z,88.82
2022-10-14T00:14:01.516Z,88.74
2022-10-14T00:16:31.984Z,88.96
2022-10-14T00:19:01.951Z,88.82
2022-10-14T00:21:31.606Z,88.64
2022-10-14T00:23:59.997Z,88.70
2022-10-14T00:26:30.977Z,88.62
2022-10-14T00:29:00.335Z,88.67
2022-10-14T00:31:32.613Z,88.67
2022-10-14T00:34:02.578Z,88.86
2022-10-14T00:36:31.050Z,88.96
2022-10-14T00:38:59.274Z,88.80
2022-10-14T00:41:30.193Z,88.64
2022-10-14T00:44:01.824Z,88.71
2022-10-14T00:46:32.043Z,88.96
2022-10-14T00:49:08.887Z,89.25
2022-10-14T00:51:39.959Z,89.47
2022-10-14T00:54:09.161Z,89.60
2022-10-14T00:56:38.040Z,89.73
2022-10-14T00:59:12.903Z,89.83
2022-10-14T01:01:41.155Z,89.96
2022-10-14T01:04:10.713Z,89.83
2022-10-14T01:06:48.973Z,89.64
2022-10-14T01:09:29.068Z,89.70
2022-10-14T01:12:28.024Z,89.83
2022-10-14T01:15:05.158Z,90.00
2022-10-14T01:17:45.389Z,90.02
2022-10-14T01:20:39.952Z,89.91
2022-10-14T01:23:32.171Z,90.02
2022-10-14T01:26:14.607Z,89.93
2022-10-14T01:28:53.215Z,89.96
2022-10-14T01:31:25.855Z,89.96
2022-10-14T01:33:57.940Z,90.05
2022-10-14T01:36:33.479Z,89.96
2022-10-14T01:39:09.777Z,89.78
2022-10-14T01:41:44.399Z,89.75
2022-10-14T01:44:15.508Z,89.84
2022-10-14T01:46:48.616Z,90.06
2022-10-14T01:49:21.158Z,90.28
2022-10-14T01:51:53.960Z,90.57
2022-10-14T01:54:26.486Z,90.97
2022-10-14T01:56:56.793Z,91.25
2022-10-14T01:59:25.885Z,91.51
2022-10-14T02:01:55.478Z,91.71
2022-10-14T02:04:24.741Z,91.89
2022-10-14T02:07:01.207Z,92.04
2022-10-14T02:09:37.402Z,92.16
2022-10-14T02:12:21.508Z,92.22
2022-10-14T02:14:54.159Z,92.28
2022-10-14T02:17:31.739Z,92.30
2022-10-14T02:20:06.474Z,92.39
2022-10-14T02:22:39.345Z,92.40
2022-10-14T02:25:27.579Z,92.54
2022-10-14T02:27:56.128Z,92.62
2022-10-14T02:30:27.126Z,92.75
2022-10-14T02:33:01.274Z,92.79
2022-10-14T02:35:31.901Z,92.63
2022-10-14T02:38:00.857Z,92.37
2022-10-14T02:40:34.549Z,92.29
2022-10-14T02:43:02.853Z,92.32
2022-10-14T02:45:31.002Z,92.38
2022-10-14T02:48:02.506Z,92.37
2022-10-14T02:50:31.187Z,92.18
2022-10-14T02:52:59.394Z,92.08
2022-10-14T02:55:27.765Z,92.10
2022-10-14T02:57:56.600Z,92.06
2022-10-14T03:00:27.480Z,92.22
2022-10-14T03:02:57.835Z,92.22
2022-10-14T03:05:31.230Z,92.06
2022-10-14T03:07:59.559Z,92.08
2022-10-14T03:10:29.817Z,92.18
2022-10-14T03:12:58.872Z,92.27
2022-10-14T03:15:32.043Z,92.28
2022-10-14T03:18:01.000Z,92.29
2022-10-14T03:20:39.722Z,92.28
2022-10-14T03:23:09.862Z,92.23
2022-10-14T03:25:39.498Z,92.13
2022-10-14T03:28:16.095Z,92.13
2022-10-14T03:30:51.333Z,92.06
2022-10-14T03:33:34.206Z,91.83
2022-10-14T03:36:15.525Z,91.85
2022-10-14T03:38:49.054Z,91.95
2022-10-14T03:41:37.538Z,92.03
2022-10-14T03:44:07.053Z,92.12
2022-10-14T03:46:37.591Z,92.16
2022-10-14T03:49:06.127Z,92.04
2022-10-14T03:51:36.075Z,92.14
2022-10-14T03:54:14.840Z,92.16
2022-10-14T03:56:43.140Z,92.15
2022-10-14T03:59:11.619Z,92.11
2022-10-14T04:01:40.230Z,92.05
2022-10-14T04:04:19.831Z,91.82
2022-10-14T04:06:50.784Z,91.67
2022-10-14T04:09:21.382Z,91.69
2022-10-14T04:11:49.926Z,91.72
2022-10-14T04:14:38.049Z,91.80
2022-10-14T04:17:07.472Z,91.68
2022-10-14T04:19:35.658Z,91.67
2022-10-14T04:22:06.093Z,91.69
2022-10-14T04:24:35.255Z,91.53
2022-10-14T04:27:03.677Z,91.40
2022-10-14T04:29:41.216Z,91.34
2022-10-14T04:32:16.100Z,91.27
2022-10-14T04:34:44.577Z,91.23
2022-10-14T04:37:17.562Z,91.12
2022-10-14T04:39:55.148Z,90.92
2022-10-14T04:42:24.424Z,91.06
2022-10-14T04:44:58.041Z,91.19
2022-10-14T04:47:37.451Z,90.90
2022-10-14T04:50:06.798Z,90.92
2022-10-14T04:52:38.071Z,91.00
2022-10-14T04:55:13.746Z,90.84
2022-10-14T04:57:44.326Z,90.83
2022-10-14T05:00:14.474Z,90.66
2022-10-14T05:03:05.740Z,90.57
2022-10-14T05:05:37.077Z,90.64
2022-10-14T05:08:08.686Z,90.70
2022-10-14T05:10:43.138Z,90.88
2022-10-14T05:13:18.642Z,91.01
2022-10-14T05:16:13.326Z,91.08
2022-10-14T05:18:41.639Z,91.09
2022-10-14T05:21:12.177Z,91.13
2022-10-14T05:23:52.700Z,91.21
2022-10-14T05:26:21.209Z,91.30
2022-10-14T05:28:52.892Z,91.33
2022-10-14T05:31:22.596Z,91.21
2022-10-14T05:34:02.467Z,91.24
2022-10-14T05:36:30.728Z,91.32
2022-10-14T05:39:00.354Z,91.42
2022-10-14T05:41:35.090Z,91.53
2022-10-14T05:44:04.382Z,91.59
2022-10-14T05:46:33.161Z,91.64
2022-10-14T05:49:05.957Z,91.71
2022-10-14T05:51:37.786Z,91.79
2022-10-14T05:54:14.873Z,91.88
2022-10-14T05:56:44.984Z,92.11
2022-10-14T05:59:14.092Z,92.19
2022-10-14T06:01:43.741Z,92.18
2022-10-14T06:04:18.725Z,92.18
2022-10-14T06:06:47.583Z,92.19
2022-10-14T06:09:18.712Z,92.16
2022-10-14T06:11:46.940Z,92.27
2022-10-14T06:14:15.239Z,92.34
2022-10-14T06:16:43.678Z,92.45
2022-10-14T06:19:11.955Z,92.63
2022-10-14T06:21:40.258Z,92.80
2022-10-14T06:24:08.994Z,92.87
2022-10-14T06:26:38.762Z,92.94
2022-10-14T06:29:07.122Z,92.84
2022-10-14T06:31:35.383Z,92.72
2022-10-14T06:34:06.075Z,92.63
2022-10-14T06:36:34.583Z,92.62
2022-10-14T06:39:02.951Z,92.76
2022-10-14T06:41:33.142Z,92.75
2022-10-14T06:44:02.726Z,92.79
2022-10-14T06:46:31.595Z,92.60
2022-10-14T06:48:59.819Z,92.50
2022-10-14T06:51:28.050Z,92.41
2022-10-14T06:53:56.254Z,92.40
2022-10-14T06:56:24.435Z,92.18
2022-10-14T06:58:54.768Z,92.08
2022-10-14T07:01:24.936Z,92.08
2022-10-14T07:03:55.904Z,92.23
2022-10-14T07:06:25.082Z,92.42
2022-10-14T07:08:53.201Z,92.71
2022-10-14T07:11:21.542Z,92.91
2022-10-14T07:13:49.776Z,93.15
2022-10-14T07:16:17.930Z,93.24
2022-10-14T07:18:47.539Z,93.14
2022-10-14T07:21:15.963Z,93.14
2022-10-14T07:23:44.173Z,92.95
2022-10-14T07:26:13.061Z,92.83
2022-10-14T07:28:41.256Z,92.67
2022-10-14T07:31:11.471Z,92.76
2022-10-14T07:33:40.928Z,92.81
2022-10-14T07:36:15.152Z,92.78
2022-10-14T07:38:46.241Z,92.78
2022-10-14T07:41:18.283Z,92.56
2022-10-14T07:43:47.661Z,92.52
2022-10-14T07:46:17.285Z,92.47
2022-10-14T07:48:56.772Z,92.30
2022-10-14T07:51:27.471Z,92.46
2022-10-14T07:53:56.197Z,92.37
2022-10-14T07:56:25.134Z,92.37
2022-10-14T07:58:53.657Z,92.48
2022-10-14T08:01:22.152Z,92.10
2022-10-14T08:03:50.489Z,91.66
2022-10-14T08:06:18.849Z,90.99
2022-10-14T08:08:48.449Z,90.87
2022-10-14T08:11:19.316Z,90.73
2022-10-14T08:13:47.829Z,90.17
2022-10-14T08:16:17.627Z,89.82
2022-10-14T08:18:46.781Z,89.64
2022-10-14T08:21:16.078Z,89.34
2022-10-14T08:23:44.577Z,88.81
2022-10-14T08:26:21.347Z,88.28
2022-10-14T08:28:52.266Z,88.14
2022-10-14T08:31:20.837Z,88.62
2022-10-14T08:33:49.363Z,88.68
2022-10-14T08:36:18.629Z,88.53
2022-10-14T08:38:47.152Z,88.69
2022-10-14T08:41:27.285Z,88.60
2022-10-14T08:44:06.995Z,88.64
2022-10-14T08:46:40.253Z,88.83
2022-10-14T08:49:16.780Z,88.99
2022-10-14T08:51:49.397Z,88.71
2022-10-14T08:54:27.297Z,88.51
2022-10-14T08:56:58.753Z,88.64
2022-10-14T08:59:28.137Z,88.73
2022-10-14T09:02:01.639Z,88.77
2022-10-14T09:04:39.258Z,88.69
2022-10-14T09:07:07.942Z,88.77
2022-10-14T09:09:43.019Z,88.10
2022-10-14T09:12:16.212Z,88.14
2022-10-14T09:14:48.478Z,88.39
2022-10-14T09:17:21.641Z,88.31
2022-10-14T09:19:53.425Z,88.66
2022-10-14T09:22:22.079Z,88.41
2022-10-14T09:24:50.585Z,88.80
2022-10-14T09:27:22.670Z,89.34
2022-10-14T09:29:54.384Z,89.45
2022-10-14T09:32:32.087Z,88.77
2022-10-14T09:35:00.473Z,88.68
2022-10-14T09:37:30.675Z,89.09
2022-10-14T09:40:03.117Z,89.29
2022-10-14T09:42:48.854Z,88.84
2022-10-14T09:45:19.594Z,88.98
2022-10-14T09:47:54.226Z,89.27
2022-10-14T09:50:26.241Z,89.12
2022-10-14T09:52:58.529Z,89.00
2022-10-14T09:55:26.948Z,89.07
2022-10-14T09:58:05.626Z,88.85
2022-10-14T10:00:39.591Z,88.58
2022-10-14T10:03:09.930Z,88.28
2022-10-14T10:05:40.690Z,88.29
2022-10-14T10:08:17.888Z,88.28
2022-10-14T10:11:03.711Z,88.57
2022-10-14T10:13:45.664Z,88.93
2022-10-14T10:16:23.437Z,89.01
2022-10-14T10:18:53.164Z,88.92
2022-10-14T10:21:26.554Z,89.26
2022-10-14T10:24:00.052Z,88.60
2022-10-14T10:26:31.900Z,88.33
2022-10-14T10:29:03.567Z,88.44
2022-10-14T10:32:07.587Z,87.62
2022-10-14T10:34:58.428Z,86.77
2022-10-14T10:37:29.410Z,86.12
2022-10-14T10:40:31.318Z,85.09
2022-10-14T10:43:33.812Z,85.19
2022-10-14T10:46:24.283Z,84.42
2022-10-14T10:48:57.807Z,83.08
2022-10-14T10:51:34.700Z,82.69
2022-10-14T10:54:20.361Z,82.10
2022-10-14T10:56:52.449Z,81.43
2022-10-14T10:59:35.324Z,80.42
2022-10-14T11:02:38.328Z,80.59
2022-10-14T11:05:13.676Z,79.82
2022-10-14T11:08:12.758Z,79.62
2022-10-14T11:11:09.656Z,78.84
2022-10-14T11:13:47.611Z,79.76
2022-10-14T11:16:26.670Z,79.20
2022-10-14T11:19:03.955Z,79.64
2022-10-14T11:21:40.595Z,79.93
2022-10-14T11:27:00.681Z,79.67
2022-10-14T11:29:53.885Z,79.77
2022-10-14T11:32:26.363Z,79.65
2022-10-14T11:35:06.074Z,78.82
2022-10-14T11:37:45.464Z,78.56
2022-10-14T11:40:22.788Z,78.95
2022-10-14T11:43:02.569Z,78.69
2022-10-14T11:45:49.960Z,78.22
2022-10-14T11:48:28.322Z,78.28
2022-10-14T11:51:03.220Z,77.34
2022-10-14T11:53:43.036Z,77.40
2022-10-14T11:56:24.232Z,77.02
2022-10-14T11:58:54.800Z,77.01
2022-10-14T12:01:34.190Z,76.33
2022-10-14T12:04:12.137Z,76.58
2022-10-14T12:06:46.591Z,76.48
2022-10-14T12:09:24.704Z,76.28
2022-10-14T12:11:58.284Z,76.16
2022-10-14T12:14:35.005Z,76.43
2022-10-14T12:17:06.743Z,77.12
2022-10-14T12:19:35.422Z,76.82
2022-10-14T12:22:14.687Z,76.46
2022-10-14T12:24:45.992Z,76.64
2022-10-14T12:27:16.189Z,76.80
2022-10-14T12:29:47.727Z,77.11
2022-10-14T12:32:24.630Z,76.90
2022-10-14T12:34:54.915Z,76.19
2022-10-14T12:37:52.567Z,77.22
2022-10-14T12:40:29.317Z,77.43
2022-10-14T12:43:16.904Z,77.05
2022-10-14T12:46:00.582Z,77.19
2022-10-14T12:48:33.304Z,78.25
2022-10-14T12:51:13.520Z,77.44
2022-10-14T12:53:58.114Z,76.26
2022-10-14T12:56:36.590Z,75.94
2022-10-14T12:59:07.778Z,77.01
2022-10-14T13:01:39.157Z,75.37
2022-10-14T13:04:20.273Z,76.14
2022-10-14T13:07:39.803Z,76.36
2022-10-14T13:10:46.811Z,76.27
2022-10-14T13:13:52.480Z,77.40
2022-10-14T13:17:03.516Z,76.64
2022-10-14T13:19:45.515Z,76.35
2022-10-14T13:22:36.482Z,76.44
2022-10-14T13:25:12.294Z,75.93
2022-10-14T13:28:03.472Z,76.21
2022-10-14T13:30:37.787Z,76.71
2022-10-14T13:33:15.473Z,76.19
2022-10-14T13:35:52.406Z,76.82
2022-10-14T13:38:23.708Z,76.76
2022-10-14T13:40:55.521Z,77.29
2022-10-14T13:43:39.624Z,77.60
2022-10-14T13:46:13.552Z,76.94
2022-10-14T13:48:45.650Z,76.82
2022-10-14T13:51:37.687Z,77.35
2022-10-14T13:54:21.083Z,77.05
2022-10-14T14:02:54.515Z,77.57
2022-10-14T14:05:27.954Z,78.05
2022-10-14T14:08:30.554Z,77.31
2022-10-14T14:11:14.899Z,78.24
2022-10-14T14:13:54.586Z,77.59
2022-10-14T14:16:31.009Z,76.70
2022-10-14T14:19:14.613Z,77.69
2022-10-14T14:21:42.794Z,76.71
2022-10-14T14:24:19.165Z,77.40
2022-10-14T14:26:55.441Z,77.90
2022-10-14T14:29:28.678Z,79.16
2022-10-14T14:32:07.197Z,79.65
2022-10-14T14:34:38.089Z,77.25
2022-10-14T14:40:00.030Z,77.54
2022-10-14T14:42:31.963Z,78.30
2022-10-14T14:45:04.286Z,78.14
2022-10-14T14:47:34.711Z,78.04
2022-10-14T14:50:28.954Z,77.97
2022-10-14T14:52:53.217Z,77.72
2022-10-14T14:56:07.880Z,78.21
2022-10-14T14:58:44.563Z,77.95
2022-10-14T15:01:20.864Z,78.68
2022-10-14T15:04:13.373Z,78.00
2022-10-14T15:06:51.024Z,78.16
2022-10-14T15:09:25.056Z,77.41
2022-10-14T15:11:55.849Z,78.30
2022-10-14T15:14:33.777Z,78.66
2022-10-14T15:17:05.689Z,77.63
2022-10-14T15:19:38.888Z,78.52
2022-10-14T15:22:32.693Z,78.66
2022-10-14T15:25:12.044Z,78.76
2022-10-14T15:27:48.359Z,78.69
2022-10-14T15:30:27.083Z,78.94
2022-10-14T15:32:58.553Z,78.72
2022-10-14T15:35:29.074Z,78.94
2022-10-14T15:37:57.356Z,77.79
2022-10-14T15:40:29.712Z,78.53
2022-10-14T15:42:58.239Z,78.93
2022-10-14T15:45:27.263Z,79.17
2022-10-14T15:48:02.671Z,78.33
2022-10-14T15:50:32.373Z,78.57
2022-10-14T15:53:00.607Z,79.39
2022-10-14T15:55:35.910Z,79.64
2022-10-14T15:58:07.430Z,79.55
2022-10-14T16:00:36.331Z,79.60
2022-10-14T16:03:06.418Z,79.91
2022-10-14T16:05:38.604Z,79.92
2022-10-14T16:08:13.890Z,80.14
2022-10-14T16:10:44.731Z,80.15
2022-10-14T16:13:13.344Z,80.70
2022-10-14T16:15:47.751Z,80.98
2022-10-14T16:18:18.294Z,80.88
2022-10-14T16:20:47.880Z,80.81
2022-10-14T16:23:16.750Z,81.10
2022-10-14T16:25:46.571Z,80.67
2022-10-14T16:28:21.761Z,80.62
2022-10-14T16:30:50.610Z,80.48
2022-10-14T16:33:21.622Z,80.34
2022-10-14T16:35:54.439Z,80.83
2022-10-14T16:38:24.469Z,81.11
2022-10-14T16:40:55.585Z,81.02
2022-10-14T16:43:23.927Z,80.91
2022-10-14T16:45:52.272Z,81.07
2022-10-14T16:48:20.842Z,81.36
2022-10-14T16:50:53.632Z,81.68
2022-10-14T16:53:43.584Z,81.64
2022-10-14T16:56:35.711Z,82.10
2022-10-14T16:59:05.359Z,82.39
2022-10-14T17:01:33.685Z,82.18
2022-10-14T17:04:03.523Z,82.66
2022-10-14T17:06:33.639Z,82.76
2022-10-14T17:09:01.908Z,82.58
2022-10-14T17:11:30.151Z,82.65
2022-10-14T17:14:01.101Z,83.02
2022-10-14T17:16:29.729Z,83.21
2022-10-14T17:18:58.946Z,83.32
2022-10-14T17:21:29.521Z,83.08
2022-10-14T17:24:02.550Z,83.36
2022-10-14T17:26:31.992Z,83.77
2022-10-14T17:29:00.617Z,83.89
2022-10-14T17:31:29.655Z,83.94
2022-10-14T17:33:59.755Z,84.06
2022-10-14T17:36:30.863Z,84.03
2022-10-14T17:39:00.984Z,84.10
2022-10-14T17:41:30.922Z,84.19
2022-10-14T17:44:01.440Z,84.14
2022-10-14T17:46:31.571Z,84.22
2022-10-14T17:49:03.749Z,84.14
2022-10-14T17:51:32.822Z,84.13
2022-10-14T17:54:03.956Z,84.39
2022-10-14T17:56:33.675Z,84.55
2022-10-14T17:59:03.677Z,84.74
2022-10-14T18:01:43.750Z,84.71
2022-10-14T18:06:55.113Z,84.83
2022-10-14T18:09:24.679Z,84.86
2022-10-14T18:12:09.883Z,84.84
2022-10-14T18:14:38.738Z,84.72
2022-10-14T18:17:07.662Z,84.53
2022-10-14T18:19:36.065Z,84.51
2022-10-14T18:22:06.599Z,84.41
2022-10-14T18:24:38.408Z,84.19
2022-10-14T18:27:07.555Z,84.52
2022-10-14T18:29:35.835Z,84.68
2022-10-14T18:32:04.378Z,84.74
2022-10-14T18:34:33.216Z,84.80
2022-10-14T18:37:01.498Z,85.02
2022-10-14T18:39:29.734Z,85.00
2022-10-14T18:41:59.472Z,84.88
2022-10-14T18:44:29.917Z,84.77
2022-10-14T18:46:58.141Z,84.61
2022-10-14T18:49:26.379Z,84.93
2022-10-14T18:51:55.271Z,85.05
2022-10-14T18:54:24.959Z,84.86
2022-10-14T18:56:54.845Z,84.39
2022-10-14T18:59:24.935Z,84.13
2022-10-14T19:01:54.031Z,84.45
2022-10-14T19:04:24.581Z,84.54
2022-10-14T19:06:52.941Z,84.23
2022-10-14T19:09:24.881Z,84.13
2022-10-14T19:11:53.308Z,84.27
2022-10-14T19:14:22.605Z,84.48
2022-10-14T19:16:52.237Z,84.22
2022-10-14T19:19:20.936Z,83.77
2022-10-14T19:21:54.442Z,83.55
2022-10-14T19:24:22.989Z,83.19
2022-10-14T19:26:51.617Z,83.07
2022-10-14T19:29:19.895Z,82.98
2022-10-14T19:31:51.035Z,83.06
2022-10-14T19:34:22.907Z,83.00
2022-10-14T19:36:52.999Z,82.80
2022-10-14T19:39:21.374Z,82.68
2022-10-14T19:41:49.548Z,83.02
2022-10-14T19:44:18.264Z,82.90
2022-10-14T19:46:46.960Z,83.02
2022-10-14T19:49:16.783Z,83.35
2022-10-14T19:51:46.471Z,83.23
2022-10-14T19:54:15.538Z,83.04
2022-10-14T19:56:44.201Z,83.23
2022-10-14T19:59:13.567Z,83.42
2022-10-14T20:01:41.969Z,83.33
2022-10-14T20:04:10.369Z,83.24
2022-10-14T20:06:40.102Z,83.58
2022-10-14T20:09:09.869Z,83.74
2022-10-14T20:11:38.258Z,83.64
2022-10-14T20:14:06.509Z,83.52
2022-10-14T20:16:35.146Z,83.78
2022-10-14T20:19:04.119Z,83.84
2022-10-14T20:21:32.351Z,83.65
2022-10-14T20:24:00.750Z,83.55
2022-10-14T20:26:31.037Z,83.95
2022-10-14T20:28:59.440Z,84.48
2022-10-14T20:31:27.927Z,84.27
2022-10-14T20:33:58.976Z,84.13
2022-10-14T20:36:27.480Z,84.41
2022-10-14T20:38:55.734Z,84.13
2022-10-14T20:41:25.886Z,84.52
2022-10-14T20:43:56.972Z,84.36
2022-10-14T20:46:25.596Z,83.97
2022-10-14T20:48:57.085Z,83.81
2022-10-14T20:51:28.133Z,83.70
2022-10-14T20:54:01.711Z,83.67
2022-10-14T20:56:34.046Z,83.61
2022-10-14T20:59:06.198Z,83.33
2022-10-14T21:01:36.171Z,82.94
2022-10-14T21:04:07.160Z,82.36
2022-10-14T21:06:36.354Z,82.62
2022-10-14T21:09:04.954Z,82.14
2022-10-14T21:11:33.305Z,81.97
2022-10-14T21:14:03.739Z,82.05
2022-10-14T21:16:34.290Z,81.93
2022-10-14T21:19:04.947Z,81.68
2022-10-14T21:21:37.054Z,81.72
2022-10-14T21:24:06.070Z,82.21
2022-10-14T21:26:34.515Z,82.19
2022-10-14T21:29:04.683Z,82.36
2022-10-14T21:31:33.060Z,82.45
2022-10-14T21:34:05.788Z,82.73
2022-10-14T21:36:35.355Z,82.94
2022-10-14T21:39:07.287Z,83.30
2022-10-14T21:41:36.183Z,83.31
2022-10-14T21:44:06.604Z,83.78
2022-10-14T21:46:35.493Z,83.81
2022-10-14T21:49:03.833Z,83.74
2022-10-14T21:51:35.382Z,83.74
2022-10-14T21:54:04.145Z,83.81
2022-10-14T21:56:32.402Z,84.11
2022-10-14T21:59:00.676Z,84.27
2022-10-14T22:01:31.025Z,84.44
2022-10-14T22:04:01.308Z,84.61
2022-10-14T22:06:29.890Z,84.45
2022-10-14T22:09:00.157Z,84.59
2022-10-14T22:11:30.016Z,84.52
2022-10-14T22:14:00.326Z,84.44
2022-10-14T22:16:30.748Z,84.32
2022-10-14T22:19:00.401Z,84.19
2022-10-14T22:21:32.721Z,84.03
2022-10-14T22:24:02.750Z,83.97
2022-10-14T22:26:31.368Z,84.08
2022-10-14T22:29:03.180Z,84.13
2022-10-14T22:31:34.024Z,84.21
2022-10-14T22:34:02.701Z,84.25
2022-10-14T22:36:32.241Z,84.19
2022-10-14T22:39:02.327Z,83.96
2022-10-14T22:41:35.126Z,84.19
2022-10-14T22:44:05.404Z,84.25
2022-10-14T22:46:36.404Z,84.26
2022-10-14T22:49:04.783Z,84.35
2022-10-14T22:51:35.571Z,84.29
2022-10-14T22:54:04.173Z,84.13
2022-10-14T22:56:33.404Z,84.27
2022-10-14T22:59:04.254Z,84.27
2022-10-14T23:01:33.893Z,84.14
2022-10-14T23:04:03.193Z,84.25
2022-10-14T23:06:32.647Z,84.36
2022-10-14T23:09:01.147Z,84.13
2022-10-14T23:11:30.870Z,83.66
2022-10-14T23:14:02.822Z,83.61
2022-10-14T23:16:36.280Z,83.50
2022-10-14T23:19:04.787Z,83.46
2022-10-14T23:21:34.726Z,83.58
2022-10-14T23:24:06.385Z,83.42
2022-10-14T23:26:35.985Z,83.41
2022-10-14T23:29:06.944Z,83.11
2022-10-14T23:31:37.813Z,82.99
2022-10-14T23:34:08.423Z,82.94
2022-10-14T23:36:38.137Z,82.99
2022-10-14T23:39:09.074Z,83.01
2022-10-14T23:41:37.452Z,83.11
2022-10-14T23:44:05.607Z,83.28
2022-10-14T23:46:33.799Z,83.53
2022-10-14T23:49:26.110Z,83.42
2022-10-14T23:51:51.600Z,83.30
2022-10-14T23:54:20.063Z,83.49
2022-10-14T23:56:48.268Z,83.74
2022-10-14T23:59:16.969Z,83.63
